Time;durP1;ratioP1;P1;durP2;ratioP2;P2;SDS_P1;SDS_P2;PMS_P1;PMS_P2;Temp;Humidity;BMP_temperature;BMP_pressure;BME280_temperature;BME280_humidity;BME280_pressure;Samples;Min_cycle;Max_cycle;Signal;HPM_P1;HPM_P2
2024/04/13 00:02:14;;;;;;;0.50;0.50;;;;;;;;;;5421836;26;20688;-73
2024/04/13 00:04:41;;;;;;;0.30;0.30;;;;;;;;;;5431415;26;20323;-73
2024/04/13 00:07:07;;;;;;;0.33;0.33;;;;;;;;;;5427902;26;20676;-73
2024/04/13 00:09:34;;;;;;;0.30;0.30;;;;;;;;;;5430978;26;20292;-74
2024/04/13 00:12:00;;;;;;;0.30;0.30;;;;;;;;;;5430508;26;20310;-73
2024/04/13 00:14:27;;;;;;;0.40;0.40;;;;;;;;;;5427669;26;20295;-74
2024/04/13 00:16:54;;;;;;;0.30;0.30;;;;;;;;;;5426904;26;20253;-74
2024/04/13 00:19:24;;;;;;;0.30;0.30;;;;;;;;;;5431566;26;20368;-75
2024/04/13 00:21:50;;;;;;;0.30;0.30;;;;;;;;;;5430497;26;20260;-74
2024/04/13 00:24:18;;;;;;;0.30;0.30;;;;;;;;;;5427156;26;20262;-73
2024/04/13 00:26:45;;;;;;;0.20;0.20;;;;;;;;;;5430147;26;20264;-73
2024/04/13 00:29:34;;;;;;;0.30;0.30;;;;;;;;;;5431204;26;20295;-74
2024/04/13 00:32:00;;;;;;;0.30;0.30;;;;;;;;;;5430870;26;20731;-74
2024/04/13 00:34:29;;;;;;;0.30;0.30;;;;;;;;;;5427726;26;20264;-74
2024/04/13 00:36:55;;;;;;;0.20;0.20;;;;;;;;;;5430078;26;20801;-74
2024/04/13 00:39:45;;;;;;;0.33;0.33;;;;;;;;;;5430223;26;20367;-74
2024/04/13 00:42:14;;;;;;;0.40;0.40;;;;;;;;;;5441175;26;20253;-76
2024/04/13 00:44:42;;;;;;;0.40;0.40;;;;;;;;;;5430099;26;20261;-74
2024/04/13 00:47:09;;;;;;;0.20;0.20;;;;;;;;;;5430059;26;20256;-75
2024/04/13 00:49:37;;;;;;;0.30;0.30;;;;;;;;;;5426583;26;20634;-73
2024/04/13 00:52:11;;;;;;;0.30;0.30;;;;;;;;;;5427726;26;20256;-73
2024/04/13 00:54:39;;;;;;;0.20;0.20;;;;;;;;;;5425220;26;20610;-73
2024/04/13 00:57:08;;;;;;;0.30;0.30;;;;;;;;;;5422643;26;20286;-74
2024/04/13 00:59:35;;;;;;;0.20;0.20;;;;;;;;;;5426645;26;20361;-73
2024/04/13 01:02:10;;;;;;;0.50;0.50;;;;;;;;;;5429841;26;20256;-73
2024/04/13 01:04:37;;;;;;;0.30;0.30;;;;;;;;;;5427784;26;20294;-75
2024/04/13 01:07:04;;;;;;;0.30;0.30;;;;;;;;;;5432133;26;20283;-75
2024/04/13 01:09:31;;;;;;;0.30;0.30;;;;;;;;;;5428693;26;20281;-75
2024/04/13 01:11:59;;;;;;;0.30;0.30;;;;;;;;;;5429385;26;20307;-75
2024/04/13 01:14:25;;;;;;;0.30;0.30;;;;;;;;;;5423915;26;20728;-75
2024/04/13 01:16:52;;;;;;;0.30;0.30;;;;;;;;;;5429191;26;20286;-76
2024/04/13 01:19:19;;;;;;;0.30;0.30;;;;;;;;;;5428636;26;20297;-74
2024/04/13 01:21:46;;;;;;;0.20;0.20;;;;;;;;;;5428273;26;20323;-75
2024/04/13 01:24:40;;;;;;;0.30;0.30;;;;;;;;;;5428755;26;20311;-74
2024/04/13 01:27:08;;;;;;;0.40;0.40;;;;;;;;;;5429781;26;20253;-75
2024/04/13 01:29:36;;;;;;;0.30;0.30;;;;;;;;;;5429261;26;20312;-75
2024/04/13 01:32:02;;;;;;;0.40;0.40;;;;;;;;;;5428361;26;20302;-75
2024/04/13 01:34:29;;;;;;;0.20;0.20;;;;;;;;;;5429932;26;20322;-74
2024/04/13 01:36:56;;;;;;;0.70;0.70;;;;;;;;;;5428968;26;20348;-74
2024/04/13 01:39:22;;;;;;;0.20;0.20;;;;;;;;;;5429226;26;20311;-74
2024/04/13 01:41:53;;;;;;;0.30;0.30;;;;;;;;;;5431653;26;20261;-74
2024/04/13 01:44:20;;;;;;;0.53;0.53;;;;;;;;;;5434117;26;20267;-74
2024/04/13 01:46:47;;;;;;;0.20;0.20;;;;;;;;;;5430375;26;20755;-74
2024/04/13 01:49:13;;;;;;;0.53;0.53;;;;;;;;;;5427759;26;20663;-74
2024/04/13 01:51:42;;;;;;;0.20;0.20;;;;;;;;;;5429178;26;20358;-73
2024/04/13 01:54:09;;;;;;;0.30;0.30;;;;;;;;;;5430549;26;20253;-74
2024/04/13 01:56:36;;;;;;;0.30;0.30;;;;;;;;;;5426860;26;20263;-75
2024/04/13 01:59:03;;;;;;;0.40;0.40;;;;;;;;;;5429557;26;20291;-75
2024/04/13 02:01:31;;;;;;;0.30;0.30;;;;;;;;;;5429753;26;20310;-76
2024/04/13 02:03:57;;;;;;;0.30;0.30;;;;;;;;;;5428874;26;20936;-74
2024/04/13 02:06:24;;;;;;;0.30;0.30;;;;;;;;;;5431282;26;20305;-75
2024/04/13 02:08:53;;;;;;;0.40;0.40;;;;;;;;;;5430472;26;20359;-74
2024/04/13 02:11:19;;;;;;;0.20;0.20;;;;;;;;;;5429039;26;20256;-75
2024/04/13 02:13:46;;;;;;;0.30;0.30;;;;;;;;;;5431255;26;20257;-75
2024/04/13 02:16:12;;;;;;;0.60;0.60;;;;;;;;;;5429276;26;20302;-75
2024/04/13 02:18:41;;;;;;;0.30;0.30;;;;;;;;;;5431051;26;20253;-75
2024/04/13 02:21:08;;;;;;;0.20;0.20;;;;;;;;;;5430615;26;20256;-75
2024/04/13 02:23:35;;;;;;;0.30;0.30;;;;;;;;;;5433213;26;20263;-75
2024/04/13 02:26:02;;;;;;;0.30;0.30;;;;;;;;;;5431972;26;20294;-75
2024/04/13 02:28:29;;;;;;;0.30;0.30;;;;;;;;;;5443764;26;20268;-75
2024/04/13 02:30:55;;;;;;;0.30;0.30;;;;;;;;;;5432192;26;20264;-75
2024/04/13 02:33:22;;;;;;;0.20;0.20;;;;;;;;;;5432940;26;20784;-74
2024/04/13 02:36:03;;;;;;;0.30;0.30;;;;;;;;;;5427636;26;20761;-74
2024/04/13 02:38:30;;;;;;;0.60;0.60;;;;;;;;;;5427574;26;20299;-75
2024/04/13 02:41:00;;;;;;;0.30;0.30;;;;;;;;;;5428773;26;20268;-74
2024/04/13 02:43:31;;;;;;;0.30;0.30;;;;;;;;;;5429385;26;20295;-74
2024/04/13 02:46:09;;;;;;;1.17;1.17;;;;;;;;;;5428199;26;20268;-75
2024/04/13 02:48:43;;;;;;;0.30;0.30;;;;;;;;;;5429090;26;20263;-74
2024/04/13 02:51:18;;;;;;;0.30;0.30;;;;;;;;;;5428920;26;20252;-75
2024/04/13 02:53:44;;;;;;;0.30;0.30;;;;;;;;;;5428498;26;20302;-74
2024/04/13 02:56:11;;;;;;;0.30;0.30;;;;;;;;;;5432172;26;20761;-75
2024/04/13 02:58:38;;;;;;;0.30;0.30;;;;;;;;;;5430413;26;20770;-75
2024/04/13 03:01:05;;;;;;;0.30;0.30;;;;;;;;;;5426721;26;20295;-75
2024/04/13 03:03:32;;;;;;;0.40;0.40;;;;;;;;;;5430960;26;20781;-74
2024/04/13 03:06:01;;;;;;;0.50;0.50;;;;;;;;;;5434043;26;20299;-75
2024/04/13 03:08:28;;;;;;;0.30;0.30;;;;;;;;;;5430445;26;20264;-74
2024/04/13 03:10:56;;;;;;;0.30;0.30;;;;;;;;;;5430597;26;20257;-74
2024/04/13 03:13:23;;;;;;;0.30;0.30;;;;;;;;;;5431848;26;20306;-74
2024/04/13 03:15:58;;;;;;;1.53;1.47;;;;;;;;;;5431156;26;20263;-74
2024/04/13 03:18:27;;;;;;;0.37;0.37;;;;;;;;;;5418700;26;20310;-74
2024/04/13 03:20:54;;;;;;;0.30;0.30;;;;;;;;;;5415812;26;20755;-74
2024/04/13 03:23:21;;;;;;;0.30;0.30;;;;;;;;;;5418165;26;20248;-76
2024/04/13 03:25:48;;;;;;;0.30;0.30;;;;;;;;;;5415597;26;20319;-74
2024/04/13 03:28:14;;;;;;;0.30;0.30;;;;;;;;;;5428822;26;20760;-75
2024/04/13 03:30:41;;;;;;;0.20;0.20;;;;;;;;;;5427130;26;20299;-74
2024/04/13 03:33:08;;;;;;;0.50;0.50;;;;;;;;;;5430664;26;20789;-74
2024/04/13 03:35:40;;;;;;;0.30;0.30;;;;;;;;;;5419207;26;20381;-77
2024/04/13 03:38:07;;;;;;;0.40;0.40;;;;;;;;;;5427488;26;20289;-73
2024/04/13 03:40:37;;;;;;;0.30;0.30;;;;;;;;;;5425879;26;20263;-74
2024/04/13 03:43:03;;;;;;;1.13;1.13;;;;;;;;;;5429449;26;20307;-74
2024/04/13 03:45:30;;;;;;;0.30;0.30;;;;;;;;;;5432396;26;20261;-73
2024/04/13 03:47:57;;;;;;;0.30;0.30;;;;;;;;;;5439456;26;20256;-73
2024/04/13 03:50:24;;;;;;;0.40;0.40;;;;;;;;;;5435440;26;20268;-75
2024/04/13 03:52:52;;;;;;;0.50;0.50;;;;;;;;;;5430536;26;20685;-75
2024/04/13 03:55:18;;;;;;;0.60;0.60;;;;;;;;;;5430243;26;20310;-76
2024/04/13 03:57:45;;;;;;;0.40;0.40;;;;;;;;;;5422440;26;20264;-73
2024/04/13 04:00:36;;;;;;;0.30;0.30;;;;;;;;;;5416632;26;20298;-74
2024/04/13 04:03:03;;;;;;;0.30;0.30;;;;;;;;;;5414930;26;20346;-74
2024/04/13 04:05:30;;;;;;;0.30;0.30;;;;;;;;;;5423072;26;20960;-74
2024/04/13 04:07:57;;;;;;;6.33;1.40;;;;;;;;;;5426504;26;20311;-73
2024/04/13 04:10:23;;;;;;;0.80;0.80;;;;;;;;;;5428154;26;20268;-75
2024/04/13 04:12:49;;;;;;;0.67;0.67;;;;;;;;;;5430211;26;20260;-74
2024/04/13 04:15:16;;;;;;;0.40;0.40;;;;;;;;;;5429336;26;20247;-73
2024/04/13 04:17:42;;;;;;;0.30;0.30;;;;;;;;;;5426256;26;20334;-76
2024/04/13 04:20:13;;;;;;;0.30;0.30;;;;;;;;;;5420913;26;20277;-75
2024/04/13 04:22:40;;;;;;;0.20;0.20;;;;;;;;;;5417522;26;21620;-75
2024/04/13 04:25:08;;;;;;;0.20;0.20;;;;;;;;;;5423568;26;20864;-75
2024/04/13 04:27:34;;;;;;;0.30;0.30;;;;;;;;;;5417461;26;20748;-75
2024/04/13 04:30:01;;;;;;;0.30;0.30;;;;;;;;;;5431394;26;20749;-74
2024/04/13 04:32:28;;;;;;;0.83;0.83;;;;;;;;;;5429334;26;20257;-75
2024/04/13 04:34:55;;;;;;;0.30;0.30;;;;;;;;;;5428982;26;20634;-77
2024/04/13 04:37:21;;;;;;;0.20;0.20;;;;;;;;;;5431143;26;20311;-75
2024/04/13 04:39:48;;;;;;;0.30;0.30;;;;;;;;;;5429759;26;20271;-75
2024/04/13 04:42:15;;;;;;;0.30;0.30;;;;;;;;;;5426340;26;20287;-76
2024/04/13 04:44:42;;;;;;;0.30;0.30;;;;;;;;;;5425342;26;20309;-74
2024/04/13 04:47:11;;;;;;;0.30;0.30;;;;;;;;;;5429821;26;20260;-75
2024/04/13 04:49:38;;;;;;;0.30;0.30;;;;;;;;;;5427770;26;20356;-76
2024/04/13 04:52:06;;;;;;;0.30;0.30;;;;;;;;;;5426522;26;20914;-74
2024/04/13 04:54:33;;;;;;;0.30;0.30;;;;;;;;;;5425772;26;20271;-73
2024/04/13 04:57:00;;;;;;;0.30;0.30;;;;;;;;;;5429288;26;20261;-73
2024/04/13 04:59:27;;;;;;;0.50;0.50;;;;;;;;;;5425937;26;20341;-75
2024/04/13 05:01:53;;;;;;;0.50;0.50;;;;;;;;;;5425766;26;20256;-74
2024/04/13 05:04:26;;;;;;;0.30;0.30;;;;;;;;;;5422554;26;20247;-73
2024/04/13 05:06:53;;;;;;;0.53;0.53;;;;;;;;;;5430161;26;20273;-73
2024/04/13 05:09:20;;;;;;;0.83;0.83;;;;;;;;;;5431319;26;20289;-73
2024/04/13 05:11:47;;;;;;;0.30;0.30;;;;;;;;;;5434323;26;20265;-73
2024/04/13 05:14:16;;;;;;;0.53;0.53;;;;;;;;;;5434097;26;20338;-73
2024/04/13 05:16:43;;;;;;;0.33;0.33;;;;;;;;;;5431134;26;20307;-74
2024/04/13 05:19:11;;;;;;;0.40;0.40;;;;;;;;;;5432782;26;20260;-74
2024/04/13 05:21:38;;;;;;;0.93;0.93;;;;;;;;;;5430921;26;20610;-75
2024/04/13 05:24:05;;;;;;;0.30;0.30;;;;;;;;;;5432948;26;20259;-74
2024/04/13 05:26:32;;;;;;;0.30;0.30;;;;;;;;;;5430156;26;20852;-74
2024/04/13 05:28:59;;;;;;;0.30;0.30;;;;;;;;;;5432522;26;20259;-74
2024/04/13 05:31:25;;;;;;;0.30;0.30;;;;;;;;;;5429298;26;20785;-75
2024/04/13 05:33:52;;;;;;;0.30;0.30;;;;;;;;;;5430816;26;20300;-73
2024/04/13 05:36:19;;;;;;;0.30;0.30;;;;;;;;;;5431109;26;20340;-73
2024/04/13 05:38:45;;;;;;;0.40;0.40;;;;;;;;;;5429904;26;20323;-73
2024/04/13 05:41:12;;;;;;;0.30;0.30;;;;;;;;;;5429116;26;20257;-74
2024/04/13 05:43:39;;;;;;;0.30;0.30;;;;;;;;;;5429474;26;20670;-73
2024/04/13 05:46:05;;;;;;;0.30;0.30;;;;;;;;;;5430111;26;20764;-74
2024/04/13 05:48:32;;;;;;;0.53;0.53;;;;;;;;;;5433337;26;20284;-74
2024/04/13 05:50:59;;;;;;;0.80;0.80;;;;;;;;;;5434010;26;20623;-74
2024/04/13 05:53:26;;;;;;;0.30;0.30;;;;;;;;;;5433887;26;20265;-74
2024/04/13 05:55:53;;;;;;;0.30;0.30;;;;;;;;;;5429384;26;20249;-74
2024/04/13 05:58:19;;;;;;;0.30;0.30;;;;;;;;;;5434844;26;20286;-74
2024/04/13 06:00:46;;;;;;;0.40;0.40;;;;;;;;;;5431014;26;20256;-74
2024/04/13 06:03:14;;;;;;;0.40;0.40;;;;;;;;;;5440862;26;20272;-74
2024/04/13 06:05:42;;;;;;;0.30;0.30;;;;;;;;;;5451080;26;20349;-74
2024/04/13 06:08:10;;;;;;;0.30;0.30;;;;;;;;;;5442733;26;20263;-74
2024/04/13 06:10:36;;;;;;;0.73;0.73;;;;;;;;;;5464485;26;20256;-74
2024/04/13 06:13:03;;;;;;;0.40;0.40;;;;;;;;;;5433838;26;20301;-74
2024/04/13 06:15:30;;;;;;;0.30;0.30;;;;;;;;;;5427262;26;20268;-74
2024/04/13 06:17:57;;;;;;;0.20;0.20;;;;;;;;;;5432162;26;20263;-73
2024/04/13 06:20:24;;;;;;;0.30;0.30;;;;;;;;;;5425192;26;20264;-74
2024/04/13 06:22:50;;;;;;;0.40;0.40;;;;;;;;;;5430782;26;20307;-73
2024/04/13 06:25:17;;;;;;;0.30;0.30;;;;;;;;;;5428199;26;20312;-73
2024/04/13 06:27:44;;;;;;;0.30;0.30;;;;;;;;;;5433631;26;20295;-74
2024/04/13 06:30:14;;;;;;;0.30;0.30;;;;;;;;;;5431123;26;20260;-74
2024/04/13 06:32:40;;;;;;;0.93;0.93;;;;;;;;;;5437292;26;20255;-75
2024/04/13 06:35:09;;;;;;;0.30;0.30;;;;;;;;;;5431311;26;20346;-74
2024/04/13 06:37:35;;;;;;;0.60;0.60;;;;;;;;;;5438238;26;20253;-74
2024/04/13 06:40:04;;;;;;;0.40;0.40;;;;;;;;;;5431354;26;20264;-74
2024/04/13 06:42:31;;;;;;;0.30;0.30;;;;;;;;;;5421420;26;20323;-76
2024/04/13 06:44:58;;;;;;;0.30;0.30;;;;;;;;;;5392982;26;20265;-74
2024/04/13 06:47:25;;;;;;;0.50;0.50;;;;;;;;;;5387201;26;20295;-74
2024/04/13 06:49:51;;;;;;;0.50;0.50;;;;;;;;;;5388300;26;20326;-74
2024/04/13 06:52:18;;;;;;;0.20;0.20;;;;;;;;;;5386866;26;20309;-74
2024/04/13 06:55:04;;;;;;;0.47;0.47;;;;;;;;;;5422377;26;20318;-76
2024/04/13 06:57:30;;;;;;;0.67;0.57;;;;;;;;;;5423782;26;20296;-74
2024/04/13 06:59:57;;;;;;;0.63;0.63;;;;;;;;;;5426853;26;20256;-74
2024/04/13 07:02:25;;;;;;;0.23;0.23;;;;;;;;;;5426791;26;20256;-75
2024/04/13 07:04:51;;;;;;;0.20;0.20;;;;;;;;;;5428661;26;20295;-74
2024/04/13 07:07:18;;;;;;;0.50;0.43;;;;;;;;;;5425485;26;20321;-74
2024/04/13 07:09:49;;;;;;;0.50;0.50;;;;;;;;;;5428298;26;20257;-75
2024/04/13 07:12:16;;;;;;;0.30;0.30;;;;;;;;;;5426905;26;20256;-76
2024/04/13 07:14:44;;;;;;;0.40;0.40;;;;;;;;;;5430018;26;20298;-75
2024/04/13 07:17:10;;;;;;;0.63;0.63;;;;;;;;;;5426772;26;20303;-74
2024/04/13 07:19:37;;;;;;;0.67;0.67;;;;;;;;;;5429202;26;20689;-75
2024/04/13 07:22:03;;;;;;;1.57;1.23;;;;;;;;;;5429695;26;20325;-75
2024/04/13 07:24:30;;;;;;;0.57;0.57;;;;;;;;;;5424155;26;20302;-75
2024/04/13 07:26:56;;;;;;;0.33;0.33;;;;;;;;;;5430190;26;20310;-74
2024/04/13 07:29:23;;;;;;;0.77;0.77;;;;;;;;;;5429879;26;20282;-74
2024/04/13 07:31:50;;;;;;;0.40;0.40;;;;;;;;;;5429169;26;20265;-75
2024/04/13 07:34:18;;;;;;;0.50;0.50;;;;;;;;;;5431870;26;20252;-76
2024/04/13 07:36:45;;;;;;;0.40;0.40;;;;;;;;;;5425522;26;20298;-75
2024/04/13 07:39:12;;;;;;;0.50;0.50;;;;;;;;;;5426470;26;20264;-75
2024/04/13 07:42:03;;;;;;;0.37;0.37;;;;;;;;;;5428738;26;20646;-75
2024/04/13 07:44:29;;;;;;;0.57;0.57;;;;;;;;;;5426661;26;20256;-76
2024/04/13 07:46:57;;;;;;;0.67;0.67;;;;;;;;;;5427159;26;20263;-75
2024/04/13 07:49:23;;;;;;;4.27;0.60;;;;;;;;;;5427857;26;20257;-75
2024/04/13 07:51:50;;;;;;;0.77;0.77;;;;;;;;;;5426240;26;20590;-75
2024/04/13 07:54:17;;;;;;;0.50;0.50;;;;;;;;;;5429350;26;20456;-75
2024/04/13 07:56:44;;;;;;;0.90;0.90;;;;;;;;;;5429017;26;20919;-75
2024/04/13 07:59:11;;;;;;;0.53;0.53;;;;;;;;;;5428582;26;20260;-75
2024/04/13 08:01:41;;;;;;;2.00;0.90;;;;;;;;;;5426581;26;20252;-75
2024/04/13 08:04:08;;;;;;;0.47;0.47;;;;;;;;;;5428969;26;20330;-75
2024/04/13 08:06:36;;;;;;;0.68;0.60;;;;;;;;;;5430104;26;20259;-75
2024/04/13 08:09:03;;;;;;;0.70;0.70;;;;;;;;;;5431037;26;20256;-75
2024/04/13 08:11:29;;;;;;;3.03;1.40;;;;;;;;;;5430643;26;20323;-75
2024/04/13 08:13:56;;;;;;;0.47;0.47;;;;;;;;;;5430162;26;20255;-75
2024/04/13 08:16:22;;;;;;;0.70;0.70;;;;;;;;;;5431048;26;20319;-77
2024/04/13 08:18:48;;;;;;;1.45;1.13;;;;;;;;;;5424325;26;20285;-75
2024/04/13 08:21:16;;;;;;;0.90;0.90;;;;;;;;;;5429180;26;20369;-75
2024/04/13 08:23:46;;;;;;;0.77;0.77;;;;;;;;;;5429445;26;20264;-75
2024/04/13 08:26:12;;;;;;;0.50;0.50;;;;;;;;;;5423664;26;20326;-77
2024/04/13 08:28:38;;;;;;;0.50;0.50;;;;;;;;;;5430805;26;20328;-75
2024/04/13 08:31:05;;;;;;;0.70;0.70;;;;;;;;;;5429981;26;20717;-75
2024/04/13 08:33:33;;;;;;;1.48;1.38;;;;;;;;;;5423741;26;20799;-76
2024/04/13 08:36:05;;;;;;;0.90;0.88;;;;;;;;;;5404448;26;20252;-75
2024/04/13 08:38:32;;;;;;;0.50;0.50;;;;;;;;;;5390054;26;20258;-76
2024/04/13 08:41:26;;;;;;;0.50;0.50;;;;;;;;;;5390033;26;20327;-77
2024/04/13 08:43:53;;;;;;;4.43;0.95;;;;;;;;;;5390771;26;20269;-76
2024/04/13 08:46:21;;;;;;;0.73;0.73;;;;;;;;;;5391752;26;20607;-76
2024/04/13 08:48:49;;;;;;;1.42;1.33;;;;;;;;;;5394131;26;20323;-76
2024/04/13 08:51:17;;;;;;;0.95;0.95;;;;;;;;;;5388570;26;20777;-76
2024/04/13 08:54:09;;;;;;;0.82;0.82;;;;;;;;;;5392905;26;20265;-76
2024/04/13 08:56:39;;;;;;;1.15;1.08;;;;;;;;;;5388890;26;20262;-75
2024/04/13 08:59:07;;;;;;;0.85;0.85;;;;;;;;;;5389850;26;20308;-75
2024/04/13 09:01:34;;;;;;;0.95;0.95;;;;;;;;;;5388913;26;20312;-75
2024/04/13 09:04:01;;;;;;;0.65;0.65;;;;;;;;;;5394619;26;21112;-75
2024/04/13 09:06:28;;;;;;;0.88;0.88;;;;;;;;;;5393789;26;20299;-76
2024/04/13 09:08:55;;;;;;;0.60;0.60;;;;;;;;;;5392118;26;20357;-76
2024/04/13 09:11:22;;;;;;;2.35;1.48;;;;;;;;;;5392112;26;20664;-76
2024/04/13 09:13:52;;;;;;;1.00;1.00;;;;;;;;;;5389678;26;20269;-75
2024/04/13 09:16:19;;;;;;;1.45;1.35;;;;;;;;;;5391567;26;20854;-75
2024/04/13 09:18:46;;;;;;;1.00;1.00;;;;;;;;;;5394787;26;20286;-75
2024/04/13 09:21:13;;;;;;;2.47;1.60;;;;;;;;;;5392881;26;20360;-76
2024/04/13 09:23:41;;;;;;;0.60;0.60;;;;;;;;;;5373176;26;20260;-75
2024/04/13 09:26:08;;;;;;;1.23;1.13;;;;;;;;;;5385614;26;20252;-76
2024/04/13 09:28:41;;;;;;;0.77;0.77;;;;;;;;;;5387757;26;20299;-76
2024/04/13 09:31:09;;;;;;;1.80;1.55;;;;;;;;;;5388701;26;20257;-76
2024/04/13 09:33:37;;;;;;;1.13;0.98;;;;;;;;;;5389496;26;20286;-75
2024/04/13 09:36:05;;;;;;;1.52;1.45;;;;;;;;;;5403906;26;20288;-75
2024/04/13 09:38:32;;;;;;;1.33;1.27;;;;;;;;;;5394575;26;20310;-76
2024/04/13 09:40:59;;;;;;;0.45;0.45;;;;;;;;;;5390085;26;20291;-76
2024/04/13 09:43:26;;;;;;;3.83;0.93;;;;;;;;;;5388930;26;20291;-76
2024/04/13 09:46:00;;;;;;;0.50;0.50;;;;;;;;;;5389150;26;20313;-76
2024/04/13 09:48:27;;;;;;;0.98;0.95;;;;;;;;;;5391279;26;20299;-76
2024/04/13 09:50:55;;;;;;;1.05;1.05;;;;;;;;;;5389323;26;20262;-75
2024/04/13 09:53:21;;;;;;;1.63;1.15;;;;;;;;;;5388630;26;20747;-76
2024/04/13 09:55:54;;;;;;;0.57;0.57;;;;;;;;;;5385145;26;20258;-76
2024/04/13 09:58:20;;;;;;;0.65;0.65;;;;;;;;;;5385685;26;20262;-76
2024/04/13 10:00:47;;;;;;;1.17;1.08;;;;;;;;;;5389946;26;20250;-76
2024/04/13 10:03:15;;;;;;;1.17;1.05;;;;;;;;;;5389236;26;20256;-76
2024/04/13 10:05:45;;;;;;;1.67;0.85;;;;;;;;;;5395697;26;20790;-76
2024/04/13 10:08:14;;;;;;;0.98;0.98;;;;;;;;;;5390489;26;20302;-75
2024/04/13 10:10:43;;;;;;;0.43;0.43;;;;;;;;;;5389284;26;20302;-76
2024/04/13 10:13:40;;;;;;;0.68;0.68;;;;;;;;;;5389457;26;20287;-76
2024/04/13 10:16:08;;;;;;;0.90;0.90;;;;;;;;;;5393163;26;20323;-75
2024/04/13 10:18:36;;;;;;;1.80;0.65;;;;;;;;;;5391901;26;20264;-75
2024/04/13 10:21:05;;;;;;;0.95;0.95;;;;;;;;;;5390889;26;20257;-75
2024/04/13 10:23:42;;;;;;;0.70;0.70;;;;;;;;;;5392426;26;20254;-76
2024/04/13 10:26:13;;;;;;;0.43;0.43;;;;;;;;;;5386644;26;20320;-77
2024/04/13 10:28:40;;;;;;;0.70;0.70;;;;;;;;;;5389699;26;20299;-75
2024/04/13 10:31:19;;;;;;;3.38;1.05;;;;;;;;;;5389770;26;20303;-76
2024/04/13 10:33:56;;;;;;;1.00;1.00;;;;;;;;;;5391605;26;20291;-75
2024/04/13 10:36:35;;;;;;;0.50;0.50;;;;;;;;;;5388883;26;20651;-75
2024/04/13 10:39:03;;;;;;;1.42;0.95;;;;;;;;;;5433037;26;20307;-75
2024/04/13 10:41:37;;;;;;;0.75;0.75;;;;;;;;;;5431295;26;20849;-76
2024/04/13 10:44:05;;;;;;;0.77;0.77;;;;;;;;;;5429751;26;20267;-75
2024/04/13 10:46:33;;;;;;;0.60;0.60;;;;;;;;;;5428246;26;21013;-75
2024/04/13 10:49:00;;;;;;;1.10;1.10;;;;;;;;;;5430897;26;20322;-76
2024/04/13 10:51:27;;;;;;;0.57;0.57;;;;;;;;;;5434586;26;20276;-75
2024/04/13 10:53:53;;;;;;;0.45;0.45;;;;;;;;;;5436799;26;20282;-75
2024/04/13 10:56:21;;;;;;;0.85;0.85;;;;;;;;;;5438871;26;20263;-75
2024/04/13 10:58:49;;;;;;;1.02;1.02;;;;;;;;;;5423293;26;20681;-76
2024/04/13 11:01:16;;;;;;;0.52;0.52;;;;;;;;;;5424794;26;20688;-75
2024/04/13 11:03:45;;;;;;;0.90;0.90;;;;;;;;;;5431897;26;20255;-75
2024/04/13 11:06:12;;;;;;;0.95;0.82;;;;;;;;;;5430611;26;20265;-76
2024/04/13 11:08:38;;;;;;;0.65;0.65;;;;;;;;;;5427153;26;20283;-75
2024/04/13 11:11:05;;;;;;;0.60;0.60;;;;;;;;;;5426055;26;20300;-76
2024/04/13 11:13:32;;;;;;;0.73;0.73;;;;;;;;;;5433469;26;20290;-75
2024/04/13 11:15:59;;;;;;;0.75;0.75;;;;;;;;;;5430318;26;21095;-75
2024/04/13 11:18:26;;;;;;;0.70;0.70;;;;;;;;;;5428401;26;20299;-75
2024/04/13 11:20:58;;;;;;;5.68;1.17;;;;;;;;;;5428134;26;20260;-75
2024/04/13 11:23:25;;;;;;;0.50;0.50;;;;;;;;;;5429124;26;20307;-72
2024/04/13 11:25:53;;;;;;;0.40;0.40;;;;;;;;;;5429450;26;20296;-75
2024/04/13 11:28:20;;;;;;;0.82;0.60;;;;;;;;;;5431283;26;20250;-75
2024/04/13 11:30:46;;;;;;;0.70;0.70;;;;;;;;;;5429977;26;20263;-72
2024/04/13 11:33:15;;;;;;;0.45;0.45;;;;;;;;;;5427803;26;20373;-73
2024/04/13 11:36:03;;;;;;;0.52;0.52;;;;;;;;;;5428700;26;20302;-75
2024/04/13 11:38:34;;;;;;;0.50;0.50;;;;;;;;;;5422973;26;20267;-72
2024/04/13 11:41:01;;;;;;;5.10;0.93;;;;;;;;;;5425303;26;20849;-75
2024/04/13 11:43:27;;;;;;;0.40;0.40;;;;;;;;;;5421375;26;20298;-72
2024/04/13 11:45:55;;;;;;;0.50;0.50;;;;;;;;;;5416796;26;20256;-75
2024/04/13 11:48:22;;;;;;;0.77;0.77;;;;;;;;;;5422901;26;20256;-75
2024/04/13 11:50:48;;;;;;;0.60;0.60;;;;;;;;;;5423092;26;20267;-73
2024/04/13 11:53:15;;;;;;;0.80;0.80;;;;;;;;;;5426867;26;20260;-72
2024/04/13 11:55:41;;;;;;;0.45;0.45;;;;;;;;;;5426187;26;20308;-75
2024/04/13 11:58:19;;;;;;;1.73;1.63;;;;;;;;;;5425966;26;20283;-74
2024/04/13 12:00:45;;;;;;;0.50;0.50;;;;;;;;;;5417558;26;20275;-75
2024/04/13 12:03:12;;;;;;;1.48;0.95;;;;;;;;;;5429232;26;20268;-75
2024/04/13 12:05:44;;;;;;;5.20;0.93;;;;;;;;;;5424417;26;20302;-75
2024/04/13 12:08:10;;;;;;;0.70;0.70;;;;;;;;;;5424494;26;20252;-75
2024/04/13 12:10:38;;;;;;;0.75;0.75;;;;;;;;;;5428148;26;20255;-75
2024/04/13 12:13:05;;;;;;;0.43;0.43;;;;;;;;;;5426083;26;20298;-75
2024/04/13 12:15:31;;;;;;;0.60;0.60;;;;;;;;;;5428266;26;20293;-76
2024/04/13 12:17:58;;;;;;;0.50;0.50;;;;;;;;;;5435094;26;20287;-75
2024/04/13 12:20:25;;;;;;;14.93;1.27;;;;;;;;;;5430719;26;20304;-75
2024/04/13 12:22:52;;;;;;;0.47;0.47;;;;;;;;;;5431668;26;20352;-75
2024/04/13 12:25:18;;;;;;;0.60;0.60;;;;;;;;;;5426234;26;21009;-74
2024/04/13 12:27:45;;;;;;;0.70;0.70;;;;;;;;;;5428188;26;20303;-75
2024/04/13 12:30:11;;;;;;;1.20;1.10;;;;;;;;;;5432409;26;20744;-75
2024/04/13 12:32:38;;;;;;;0.85;0.73;;;;;;;;;;5427989;26;20287;-75
2024/04/13 12:35:07;;;;;;;0.73;0.73;;;;;;;;;;5429359;26;20271;-75
2024/04/13 12:37:35;;;;;;;1.48;1.38;;;;;;;;;;5428724;26;20293;-74
2024/04/13 12:40:01;;;;;;;0.60;0.60;;;;;;;;;;5426704;26;20365;-74
2024/04/13 12:42:28;;;;;;;2.40;1.55;;;;;;;;;;5426562;26;20340;-75
2024/04/13 12:44:55;;;;;;;0.73;0.73;;;;;;;;;;5429753;26;20279;-75
2024/04/13 12:47:21;;;;;;;0.75;0.75;;;;;;;;;;5428831;26;20263;-75
2024/04/13 12:49:48;;;;;;;0.38;0.38;;;;;;;;;;5431703;26;20255;-75
2024/04/13 12:52:14;;;;;;;0.68;0.68;;;;;;;;;;5429904;26;20260;-75
2024/04/13 12:55:11;;;;;;;0.50;0.50;;;;;;;;;;5428524;26;20255;-75
2024/04/13 12:57:37;;;;;;;0.45;0.45;;;;;;;;;;5430628;26;20293;-75
2024/04/13 13:00:04;;;;;;;0.73;0.73;;;;;;;;;;5429296;26;20256;-75
2024/04/13 13:02:31;;;;;;;0.50;0.50;;;;;;;;;;5427578;26;20520;-75
2024/04/13 13:04:58;;;;;;;0.60;0.60;;;;;;;;;;5430937;26;20264;-75
2024/04/13 13:07:25;;;;;;;0.70;0.70;;;;;;;;;;5426670;26;20327;-75
2024/04/13 13:09:51;;;;;;;1.20;1.10;;;;;;;;;;5427134;26;20343;-75
2024/04/13 13:12:18;;;;;;;0.55;0.55;;;;;;;;;;5427502;26;20287;-75
2024/04/13 13:14:44;;;;;;;0.63;0.63;;;;;;;;;;5426846;26;20290;-75
2024/04/13 13:17:11;;;;;;;0.40;0.40;;;;;;;;;;5430199;26;20327;-75
2024/04/13 13:19:41;;;;;;;0.60;0.60;;;;;;;;;;5425689;26;20260;-75
2024/04/13 13:22:08;;;;;;;0.95;0.95;;;;;;;;;;5427162;26;20275;-75
2024/04/13 13:24:34;;;;;;;0.88;0.88;;;;;;;;;;5425121;26;20810;-75
2024/04/13 13:27:02;;;;;;;0.65;0.65;;;;;;;;;;5433198;26;20313;-75
2024/04/13 13:29:28;;;;;;;0.50;0.50;;;;;;;;;;5432309;26;20295;-75
2024/04/13 13:31:55;;;;;;;0.50;0.50;;;;;;;;;;5434625;26;20255;-75
2024/04/13 13:34:21;;;;;;;0.63;0.63;;;;;;;;;;5435646;26;20307;-75
2024/04/13 13:36:48;;;;;;;0.75;0.75;;;;;;;;;;5433728;26;20331;-75
2024/04/13 13:39:14;;;;;;;0.85;0.85;;;;;;;;;;5437691;26;20360;-76
2024/04/13 13:41:41;;;;;;;0.38;0.38;;;;;;;;;;5432575;26;20255;-75
2024/04/13 13:44:09;;;;;;;0.70;0.70;;;;;;;;;;5445575;26;20328;-76
2024/04/13 13:46:41;;;;;;;1.25;1.02;;;;;;;;;;5431009;26;20327;-76
2024/04/13 13:49:08;;;;;;;0.50;0.50;;;;;;;;;;5433167;26;20307;-76
2024/04/13 13:51:41;;;;;;;0.40;0.40;;;;;;;;;;5432526;26;20350;-76
2024/04/13 13:54:09;;;;;;;1.05;1.00;;;;;;;;;;5432145;26;20288;-75
2024/04/13 13:56:39;;;;;;;1.38;0.77;;;;;;;;;;5424722;26;20624;-75
2024/04/13 13:59:06;;;;;;;1.13;1.13;;;;;;;;;;5428021;26;20311;-75
2024/04/13 14:01:33;;;;;;;0.90;0.90;;;;;;;;;;5425061;26;20263;-75
2024/04/13 14:04:00;;;;;;;1.00;1.00;;;;;;;;;;5428300;26;20330;-75
2024/04/13 14:06:26;;;;;;;0.77;0.77;;;;;;;;;;5431025;26;20301;-76
2024/04/13 14:08:53;;;;;;;0.55;0.55;;;;;;;;;;5426325;26;20805;-75
2024/04/13 14:11:19;;;;;;;0.55;0.55;;;;;;;;;;5427530;26;20307;-75
2024/04/13 14:13:47;;;;;;;0.73;0.73;;;;;;;;;;5428597;26;20303;-75
2024/04/13 14:16:13;;;;;;;0.80;0.80;;;;;;;;;;5425318;26;20788;-75
2024/04/13 14:18:40;;;;;;;0.77;0.77;;;;;;;;;;5428856;26;20259;-75
2024/04/13 14:21:07;;;;;;;0.80;0.80;;;;;;;;;;5424349;26;20272;-75
2024/04/13 14:23:33;;;;;;;1.63;1.52;;;;;;;;;;5423912;26;20300;-75
2024/04/13 14:26:02;;;;;;;1.13;1.02;;;;;;;;;;5429055;26;20303;-75
2024/04/13 14:28:28;;;;;;;0.77;0.77;;;;;;;;;;5424737;26;20256;-75
2024/04/13 14:30:55;;;;;;;0.70;0.68;;;;;;;;;;5426309;26;20283;-76
2024/04/13 14:33:24;;;;;;;1.15;0.93;;;;;;;;;;5427940;26;20653;-76
2024/04/13 14:35:51;;;;;;;4.75;0.95;;;;;;;;;;5432513;26;20348;-76
2024/04/13 14:38:19;;;;;;;1.60;1.20;;;;;;;;;;5432674;26;20738;-76
2024/04/13 14:40:45;;;;;;;1.33;1.20;;;;;;;;;;5427416;26;20587;-75
2024/04/13 14:43:12;;;;;;;0.85;0.68;;;;;;;;;;5430491;26;20293;-76
2024/04/13 14:45:38;;;;;;;1.25;0.88;;;;;;;;;;5427389;26;20297;-76
2024/04/13 14:48:06;;;;;;;0.90;0.90;;;;;;;;;;5429711;26;20272;-76
2024/04/13 14:50:32;;;;;;;1.27;0.80;;;;;;;;;;5428151;26;20764;-76